Detalii statie MOLDOVA TIGANASI [00001D08]

Toti senzorii

Date Temperatura solului [C]Precipitatii [mm]Voltaj baterie [mV]Leaf Wetness [Min]HC Air temperature [C]HC Relative humidity [%]Punctul de roua [C]
medieminmaxsumaultimatimpmedieminmaxmediemediemin
2019-10-19 23:00:00 0 6992 9.85 9.68 10.13 100 9.7 9.6
2019-10-20 00:00:00 0 6992 9.36 8.71 9.66 100 9.3 8.7
2019-10-20 01:00:00 0 6962 8.7 8.23 8.97 100 8.6 8.2
2019-10-20 02:00:00 0 6972 8.44 8.08 8.84 100 8.4 8
2019-10-20 03:00:00 0.2 6972 8.43 7.93 8.64 100 8.3 7.9
2019-10-20 04:00:00 0 6952 8.18 7.84 8.47 100 8.1 7.8
2019-10-20 05:00:00 0 6942 8.25 7.95 8.56 100 8.2 7.9
2019-10-20 06:00:00 0 6922 8.13 7.66 8.78 100 8 7.6
2019-10-20 07:00:00 0 6922 8.88 8.74 9.02 100 8.8 8.7
2019-10-20 08:00:00 0 6904 9.3 9.02 9.68 100 9.2 9
2019-10-20 09:00:00 0 6922 10.02 9.78 10.38 100 9.9 9.7
2019-10-20 10:00:00 0 7060 10.77 10.46 11.21 100 10.7 10.4
2019-10-20 11:00:00 0 7304 11.65 11.24 12.07 100 11.5 11.2
2019-10-20 12:00:00 0 7362 12.78 12.23 13.47 100 12.7 12.2
2019-10-20 13:00:00 0 7362 14.44 13.48 16.46 100 14.4 13.4
2019-10-20 14:00:00 0 7362 16.97 15.88 17.95 98.62 16.6 15.8
2019-10-20 15:00:00 0 7362 18.48 18.04 18.8 90.86 16.8 16.4
2019-10-20 16:00:00 0 7362 19.15 18.88 19.35 85.14 16.4 15.7
2019-10-20 17:00:00 0 7264 18.32 17.64 18.93 87.51 16 15.9
2019-10-20 18:00:00 0 7216 16.77 15.88 17.5 97.31 16.2 15.8
2019-10-20 19:00:00 0 7098 14.84 13.98 15.77 100 14.7 13.9
2019-10-20 20:00:00 0 7010 13.6 13.29 13.9 100 13.5 13.2
2019-10-20 21:00:00 0 7010 12.52 11.96 13.15 100 12.4 11.9
2019-10-20 22:00:00 0 7000 11.87 11.59 12.01 100 11.8 11.5
2019-10-20 23:00:00 0 7000 11.74 11.29 12.05 100 11.7 11.2
2019-10-21 00:00:00 0.2 7000 11.8 11.4 12.02 100 11.7 11.4
2019-10-21 01:00:00 0 6992 11.3 10.92 11.45 100 11.2 10.9
2019-10-21 02:00:00 0 6992 10.67 10.47 10.88 100 10.6 10.4
2019-10-21 03:00:00 0 6982 10.05 9.65 10.36 100 10 9.6
2019-10-21 04:00:00 0 6962 9.58 9.35 9.87 100 9.5 9.3
2019-10-21 05:00:00 0 6972 8.96 8.42 9.6 100 8.9 8.4
2019-10-21 06:00:00 0 6942 8.82 8.13 9.54 100 8.7 8.1
2019-10-21 07:00:00 0.2 6914 8.21 7.48 9.46 100 8.1 7.4
2019-10-21 08:00:00 0 6894 9.91 9.52 10.28 100 9.8 9.5
2019-10-21 09:00:00 0 6904 11.12 10.36 11.84 100 11 10.3
2019-10-21 10:00:00 0 6992 12.59 12.01 13.15 100 12.5 12
2019-10-21 11:00:00 0 7176 13.52 13.17 13.94 100 13.4 13.1
2019-10-21 12:00:00 0 7362 14.59 13.94 15.47 100 14.5 13.9
2019-10-21 13:00:00 0 7362 16.53 15.34 17.98 100 16.5 15.3
2019-10-21 14:00:00 0 7362 18.82 18.05 19.88 94.31 17.7 17.2
2019-10-21 15:00:00 0 7362 20.01 19.79 20.35 84.81 17.2 16.5
2019-10-21 16:00:00 0 7352 20.41 19.99 20.7 80.54 16.7 16.3
2019-10-21 17:00:00 0 7284 19.29 18.57 19.94 87.51 17 16.8
2019-10-21 18:00:00 0 7236 17.71 16.91 18.49 95.25 16.8 16.7
2019-10-21 19:00:00 0 7080 15.89 15.35 16.56 100 15.8 15.3